Weather


ICAO METAR
KAPA KAPA 031553Z 00000KT 10SM CLR M02/M10 A3031 RMK AO2 SLP315 T10171100
KASE KASE 031553Z 00000KT 10SM CLR M11/M17 A3041 RMK AO2 SLP348 T11111172
KBJC KBJC 031547Z 00000KT 10SM SKC 00/M14 A3031
KBKF KBKF 031558Z 20007KT 10SM FEW220 M02/M14 A3031 RMK AO2A SLP304 T10161138
KCFO KCFO 031556Z 23005KT 10SM FEW220 00/M13 A3032
KCOS KCOS 031554Z 34013KT 10SM BKN250 04/M18 A3028 RMK AO2 PK WND 32027/1455 SLP285 T00391183
KCPR KCPR 031553Z 22019G30KT 10SM CLR M06/M15 A3033 RMK AO2 PK WND 22030/1544 SLP323 T10561150
KCYS KCYS 031553Z 31015G26KT 10SM CLR 00/M19 A3028 RMK AO2 PK WND 30026/1548 SLP294 T00001189
KDEN KDEN 031553Z 23008KT 10SM FEW220 M02/M13 A3031 RMK AO2 SLP297 T10171133
KEGE KEGE 031556Z 00000KT 10SM CLR M12/M17 A3055 RMK AO2 SLP439 T11221172 PNO $
KFCS KFCS 031558Z AUTO 23004KT 10SM CLR M01/M16 A3028 RMK AO2 SLP315 T10061161 $
KFMN KFMN 031553Z 08004KT 10SM CLR M07/M13 A3038 RMK AO2 SLP330 T10721133
KFNL KFNL 031556Z 00000KT 10SM CLR M03/M12 A3032 RMK AO2 SLP300 T10331117 FZRANO
KGJT KGJT 031553Z 15011KT 10SM CLR M04/M15 A3051 RMK AO2 SLP363 T10441150
KGUR KGUR 031558Z AUTO 28005KT M M M M M RMK AO2 SLPNO $
KPUB KPUB 031553Z 24005KT 10SM CLR M04/M11 A3033 RMK AO2 SLP315 T10441106
KRAP KRAP 031552Z VRB03KT 10SM CLR M01/M11 A3024 RMK AO2 SLP276 T10061106
KRCA KRCA 031556Z 26006KT 10SM CLR 00/M12 A3023 RMK AO2A SLP281 T00011119 $

Surface Data
Click here.

This is a composite map contain the following analyses: radar summary (color filled areas), surface data plot (composite station model), frontal locations (in various bold lines) and pressure contours (in thin blue lines).